sensor_id;sensor_type;location;lat;lon;timestamp;pressure;altitude;pressure_sealevel;temperature;humidity
39699;BME280;25372;50.582;12.250;2023-05-29T00:01:53;100107.31;;;8.80;76.33
39699;BME280;25372;50.582;12.250;2023-05-29T00:12:14;100110.94;;;8.78;77.01
39699;BME280;25372;50.582;12.250;2023-05-29T00:22:36;100101.63;;;8.72;76.40
39699;BME280;25372;50.582;12.250;2023-05-29T00:32:57;100094.03;;;8.84;74.52
39699;BME280;25372;50.582;12.250;2023-05-29T00:43:20;100098.63;;;8.62;76.19
39699;BME280;25372;50.582;12.250;2023-05-29T00:53:42;100097.53;;;8.49;76.00
39699;BME280;25372;50.582;12.250;2023-05-29T01:04:06;100101.47;;;8.22;78.83
39699;BME280;25372;50.582;12.250;2023-05-29T01:14:35;100101.31;;;8.08;75.29
39699;BME280;25372;50.582;12.250;2023-05-29T01:25:05;100093.59;;;8.05;78.15
39699;BME280;25372;50.582;12.250;2023-05-29T01:35:33;100094.69;;;8.01;75.85
39699;BME280;25372;50.582;12.250;2023-05-29T01:45:54;100100.78;;;7.82;77.17
39699;BME280;25372;50.582;12.250;2023-05-29T01:56:16;100092.28;;;7.59;77.41
39699;BME280;25372;50.582;12.250;2023-05-29T02:06:37;100093.00;;;7.24;77.29
39699;BME280;25372;50.582;12.250;2023-05-29T02:17:00;100092.91;;;7.07;78.46
39699;BME280;25372;50.582;12.250;2023-05-29T02:27:21;100109.00;;;6.97;78.67
39699;BME280;25372;50.582;12.250;2023-05-29T02:37:43;100104.47;;;6.82;81.17
39699;BME280;25372;50.582;12.250;2023-05-29T02:48:05;100127.28;;;6.77;81.38
39699;BME280;25372;50.582;12.250;2023-05-29T02:58:27;100142.50;;;6.46;81.54
39699;BME280;25372;50.582;12.250;2023-05-29T03:08:48;100165.81;;;6.92;81.59
39699;BME280;25372;50.582;12.250;2023-05-29T03:19:11;100158.66;;;7.17;80.69
39699;BME280;25372;50.582;12.250;2023-05-29T03:29:32;100157.88;;;7.14;81.85
39699;BME280;25372;50.582;12.250;2023-05-29T03:39:56;100160.59;;;7.32;82.24
39699;BME280;25372;50.582;12.250;2023-05-29T03:50:18;100163.34;;;7.48;82.55
39699;BME280;25372;50.582;12.250;2023-05-29T04:00:40;100170.78;;;7.77;81.91
39699;BME280;25372;50.582;12.250;2023-05-29T04:11:03;100185.28;;;8.38;80.50
39699;BME280;25372;50.582;12.250;2023-05-29T04:21:25;100194.25;;;8.87;77.16
39699;BME280;25372;50.582;12.250;2023-05-29T04:31:47;100192.88;;;8.98;75.80
39699;BME280;25372;50.582;12.250;2023-05-29T04:42:09;100198.59;;;9.56;74.36
39699;BME280;25372;50.582;12.250;2023-05-29T04:52:31;100203.94;;;11.83;66.63
39699;BME280;25372;50.582;12.250;2023-05-29T05:02:54;100190.72;;;12.93;59.83
39699;BME280;25372;50.582;12.250;2023-05-29T05:13:17;100191.16;;;13.12;59.09
39699;BME280;25372;50.582;12.250;2023-05-29T05:23:40;100188.97;;;20.24;42.99
39699;BME280;25372;50.582;12.250;2023-05-29T05:34:03;100192.44;;;21.40;41.43
39699;BME280;25372;50.582;12.250;2023-05-29T05:44:26;100192.56;;;23.48;35.51
39699;BME280;25372;50.582;12.250;2023-05-29T05:54:53;100191.69;;;24.80;34.13
39699;BME280;25372;50.582;12.250;2023-05-29T06:05:15;100192.03;;;23.52;34.89
39699;BME280;25372;50.582;12.250;2023-05-29T06:15:36;100206.22;;;17.17;48.31
39699;BME280;25372;50.582;12.250;2023-05-29T06:25:59;100209.03;;;15.74;50.62
39699;BME280;25372;50.582;12.250;2023-05-29T06:36:20;100220.59;;;15.27;52.76
39699;BME280;25372;50.582;12.250;2023-05-29T06:46:43;100219.97;;;15.80;49.27
39699;BME280;25372;50.582;12.250;2023-05-29T06:57:05;100221.66;;;16.16;48.09
39699;BME280;25372;50.582;12.250;2023-05-29T07:07:27;100236.53;;;16.28;48.24
39699;BME280;25372;50.582;12.250;2023-05-29T07:17:48;100239.19;;;16.61;47.75
39699;BME280;25372;50.582;12.250;2023-05-29T07:28:16;100248.69;;;16.63;48.01
39699;BME280;25372;50.582;12.250;2023-05-29T07:38:37;100259.69;;;16.80;45.35
39699;BME280;25372;50.582;12.250;2023-05-29T07:48:59;100255.84;;;17.05;45.40
39699;BME280;25372;50.582;12.250;2023-05-29T07:59:20;100268.00;;;17.92;45.85
39699;BME280;25372;50.582;12.250;2023-05-29T08:09:42;100270.47;;;17.73;47.63
39699;BME280;25372;50.582;12.250;2023-05-29T08:20:04;100262.38;;;18.26;46.58
39699;BME280;25372;50.582;12.250;2023-05-29T08:30:30;100258.53;;;19.37;44.00
39699;BME280;25372;50.582;12.250;2023-05-29T08:40:51;100242.03;;;24.55;34.59
39699;BME280;25372;50.582;12.250;2023-05-29T08:51:14;100229.25;;;26.37;32.13
39699;BME280;25372;50.582;12.250;2023-05-29T09:01:36;100235.31;;;25.51;30.81
39699;BME280;25372;50.582;12.250;2023-05-29T09:11:59;100244.81;;;25.08;32.42
39699;BME280;25372;50.582;12.250;2023-05-29T09:22:22;100240.66;;;23.81;30.46
39699;BME280;25372;50.582;12.250;2023-05-29T09:32:44;100253.69;;;24.24;31.53
39699;BME280;25372;50.582;12.250;2023-05-29T09:43:06;100246.25;;;22.65;33.71
39699;BME280;25372;50.582;12.250;2023-05-29T09:53:30;100246.13;;;21.63;36.01
39699;BME280;25372;50.582;12.250;2023-05-29T10:03:51;100240.00;;;21.36;35.28
39699;BME280;25372;50.582;12.250;2023-05-29T10:14:16;100227.13;;;22.10;34.94
39699;BME280;25372;50.582;12.250;2023-05-29T10:24:38;100245.34;;;21.10;36.84
39699;BME280;25372;50.582;12.250;2023-05-29T10:35:06;100239.34;;;21.69;34.89
39699;BME280;25372;50.582;12.250;2023-05-29T10:45:48;100223.19;;;21.87;33.84
39699;BME280;25372;50.582;12.250;2023-05-29T10:56:20;100216.50;;;22.76;33.24
39699;BME280;25372;50.582;12.250;2023-05-29T11:06:42;100212.53;;;23.20;34.12
39699;BME280;25372;50.582;12.250;2023-05-29T11:17:04;100209.16;;;23.43;34.30
39699;BME280;25372;50.582;12.250;2023-05-29T11:27:25;100218.09;;;21.59;35.85
39699;BME280;25372;50.582;12.250;2023-05-29T11:37:48;100195.75;;;22.61;34.08
39699;BME280;25372;50.582;12.250;2023-05-29T11:48:10;100195.69;;;23.11;32.86
39699;BME280;25372;50.582;12.250;2023-05-29T11:58:32;100194.38;;;22.99;34.44
39699;BME280;25372;50.582;12.250;2023-05-29T12:08:53;100196.63;;;23.27;34.06
39699;BME280;25372;50.582;12.250;2023-05-29T12:19:15;100175.59;;;23.55;32.78
39699;BME280;25372;50.582;12.250;2023-05-29T12:29:36;100184.91;;;23.36;33.29
39699;BME280;25372;50.582;12.250;2023-05-29T12:40:13;100163.28;;;22.48;34.54
39699;BME280;25372;50.582;12.250;2023-05-29T12:50:37;100160.34;;;23.64;33.41
39699;BME280;25372;50.582;12.250;2023-05-29T13:00:59;100160.56;;;24.71;31.19
39699;BME280;25372;50.582;12.250;2023-05-29T13:11:20;100150.25;;;25.13;33.14
39699;BME280;25372;50.582;12.250;2023-05-29T13:21:42;100149.25;;;22.21;33.36
39699;BME280;25372;50.582;12.250;2023-05-29T13:32:07;100139.41;;;23.91;31.53
39699;BME280;25372;50.582;12.250;2023-05-29T13:42:30;100128.69;;;26.74;27.91
39699;BME280;25372;50.582;12.250;2023-05-29T13:52:51;100128.59;;;26.32;29.20
39699;BME280;25372;50.582;12.250;2023-05-29T14:03:13;100115.09;;;26.25;29.28
39699;BME280;25372;50.582;12.250;2023-05-29T14:13:34;100126.38;;;25.92;29.81
39699;BME280;25372;50.582;12.250;2023-05-29T14:23:56;100133.47;;;22.84;34.82
39699;BME280;25372;50.582;12.250;2023-05-29T14:34:17;100133.34;;;23.26;33.64
39699;BME280;25372;50.582;12.250;2023-05-29T14:44:39;100135.06;;;22.54;34.63
39699;BME280;25372;50.582;12.250;2023-05-29T14:55:01;100135.59;;;24.32;32.29
39699;BME280;25372;50.582;12.250;2023-05-29T15:05:23;100131.34;;;22.71;33.70
39699;BME280;25372;50.582;12.250;2023-05-29T15:15:44;100122.38;;;23.52;33.08
39699;BME280;25372;50.582;12.250;2023-05-29T15:26:06;100118.19;;;22.53;34.49
39699;BME280;25372;50.582;12.250;2023-05-29T15:36:27;100121.91;;;23.00;35.13
39699;BME280;25372;50.582;12.250;2023-05-29T15:46:49;100116.81;;;23.85;33.94
39699;BME280;25372;50.582;12.250;2023-05-29T15:57:10;100115.69;;;23.08;33.84
39699;BME280;25372;50.582;12.250;2023-05-29T16:07:32;100117.63;;;22.83;34.87
39699;BME280;25372;50.582;12.250;2023-05-29T16:17:53;100112.47;;;21.90;36.27
39699;BME280;25372;50.582;12.250;2023-05-29T16:28:15;100113.97;;;22.01;36.44
39699;BME280;25372;50.582;12.250;2023-05-29T16:38:36;100130.34;;;22.23;36.37
39699;BME280;25372;50.582;12.250;2023-05-29T16:48:59;100137.91;;;22.19;36.11
39699;BME280;25372;50.582;12.250;2023-05-29T16:59:20;100125.91;;;21.63;36.97
39699;BME280;25372;50.582;12.250;2023-05-29T17:09:43;100124.69;;;21.41;37.02
39699;BME280;25372;50.582;12.250;2023-05-29T17:20:05;100149.34;;;21.00;38.18
39699;BME280;25372;50.582;12.250;2023-05-29T17:30:27;100152.91;;;20.56;37.68
39699;BME280;25372;50.582;12.250;2023-05-29T17:40:48;100146.44;;;20.40;38.38
39699;BME280;25372;50.582;12.250;2023-05-29T17:51:10;100145.91;;;20.19;38.64
39699;BME280;25372;50.582;12.250;2023-05-29T18:01:31;100166.97;;;19.76;40.38
39699;BME280;25372;50.582;12.250;2023-05-29T18:11:53;100176.13;;;19.45;41.77
39699;BME280;25372;50.582;12.250;2023-05-29T18:22:14;100175.72;;;18.92;42.67
39699;BME280;25372;50.582;12.250;2023-05-29T18:32:37;100185.56;;;18.52;43.35
39699;BME280;25372;50.582;12.250;2023-05-29T18:42:57;100188.09;;;18.05;44.93
39699;BME280;25372;50.582;12.250;2023-05-29T18:53:20;100208.69;;;17.40;47.32
39699;BME280;25372;50.582;12.250;2023-05-29T19:03:41;100208.19;;;16.40;52.44
39699;BME280;25372;50.582;12.250;2023-05-29T19:14:02;100207.66;;;16.14;51.48
39699;BME280;25372;50.582;12.250;2023-05-29T19:24:24;100215.47;;;16.27;51.00
39699;BME280;25372;50.582;12.250;2023-05-29T19:34:46;100232.44;;;16.24;51.22
39699;BME280;25372;50.582;12.250;2023-05-29T19:45:07;100247.19;;;15.48;54.28
39699;BME280;25372;50.582;12.250;2023-05-29T19:55:30;100270.16;;;15.48;53.10
39699;BME280;25372;50.582;12.250;2023-05-29T20:05:50;100272.50;;;15.05;57.02
39699;BME280;25372;50.582;12.250;2023-05-29T20:16:13;100271.25;;;14.62;59.96
39699;BME280;25372;50.582;12.250;2023-05-29T20:26:34;100281.44;;;14.56;60.18
39699;BME280;25372;50.582;12.250;2023-05-29T20:36:55;100284.47;;;14.62;55.80
39699;BME280;25372;50.582;12.250;2023-05-29T20:47:16;100290.50;;;14.89;54.35
39699;BME280;25372;50.582;12.250;2023-05-29T20:57:39;100304.06;;;14.84;52.62
39699;BME280;25372;50.582;12.250;2023-05-29T21:07:59;100297.81;;;14.85;56.52
39699;BME280;25372;50.582;12.250;2023-05-29T21:18:23;100296.16;;;14.71;55.74
39699;BME280;25372;50.582;12.250;2023-05-29T21:28:44;100297.34;;;14.67;53.60
39699;BME280;25372;50.582;12.250;2023-05-29T21:39:06;100311.66;;;14.89;51.49
39699;BME280;25372;50.582;12.250;2023-05-29T21:49:27;100315.41;;;14.73;52.05
39699;BME280;25372;50.582;12.250;2023-05-29T21:59:49;100320.75;;;14.60;51.08
39699;BME280;25372;50.582;12.250;2023-05-29T22:10:10;100332.19;;;14.48;51.45
39699;BME280;25372;50.582;12.250;2023-05-29T22:20:32;100329.19;;;14.52;51.14
39699;BME280;25372;50.582;12.250;2023-05-29T22:30:55;100334.03;;;14.21;52.51
39699;BME280;25372;50.582;12.250;2023-05-29T22:41:17;100340.47;;;13.80;54.40
39699;BME280;25372;50.582;12.250;2023-05-29T22:51:38;100333.34;;;13.41;57.16
39699;BME280;25372;50.582;12.250;2023-05-29T23:02:00;100340.56;;;13.12;57.15
39699;BME280;25372;50.582;12.250;2023-05-29T23:12:21;100338.38;;;12.78;58.11
39699;BME280;25372;50.582;12.250;2023-05-29T23:22:43;100338.09;;;12.41;60.55
39699;BME280;25372;50.582;12.250;2023-05-29T23:33:04;100334.19;;;12.34;58.50
39699;BME280;25372;50.582;12.250;2023-05-29T23:43:26;100344.59;;;12.35;57.28
39699;BME280;25372;50.582;12.250;2023-05-29T23:53:46;100355.44;;;12.16;58.61
